createdAt,value
2023-12-11T00:00:21.772Z,4.80
2023-12-11T00:02:49.083Z,4.20
2023-12-11T00:05:16.316Z,4.30
2023-12-11T00:07:43.940Z,4.20
2023-12-11T00:10:10.995Z,4.60
2023-12-11T00:12:38.401Z,5.80
2023-12-11T00:15:06.061Z,4.20
2023-12-11T00:17:33.619Z,6.50
2023-12-11T00:20:00.901Z,4.50
2023-12-11T00:22:27.977Z,5.90
2023-12-11T00:24:55.346Z,7.60
2023-12-11T00:27:22.456Z,13.00
2023-12-11T00:29:50.324Z,6.00
2023-12-11T00:32:17.164Z,10.10
2023-12-11T00:34:44.130Z,6.60
2023-12-11T00:37:11.207Z,5.90
2023-12-11T00:39:39.046Z,9.10
2023-12-11T00:42:06.094Z,5.50
2023-12-11T00:44:33.340Z,5.80
2023-12-11T00:47:03.139Z,8.70
2023-12-11T00:49:30.181Z,6.20
2023-12-11T00:51:57.669Z,7.60
2023-12-11T00:54:24.793Z,7.90
2023-12-11T00:56:51.934Z,9.80
2023-12-11T00:59:18.943Z,7.10
2023-12-11T01:01:45.866Z,8.30
2023-12-11T01:04:13.460Z,9.00
2023-12-11T01:06:40.677Z,7.90
2023-12-11T01:09:07.476Z,7.90
2023-12-11T01:11:34.435Z,8.70
2023-12-11T01:14:01.371Z,7.20
2023-12-11T01:16:28.536Z,10.80
2023-12-11T01:18:55.897Z,7.90
2023-12-11T01:21:23.125Z,8.50
2023-12-11T01:23:50.172Z,6.60
2023-12-11T01:26:17.631Z,9.10
2023-12-11T01:28:44.791Z,6.90
2023-12-11T01:31:12.069Z,6.90
2023-12-11T01:33:39.140Z,6.40
2023-12-11T01:36:06.838Z,13.00
2023-12-11T01:38:33.780Z,5.90
2023-12-11T01:41:01.028Z,7.90
2023-12-11T01:43:27.893Z,5.40
2023-12-11T01:46:05.110Z,7.20
2023-12-11T01:48:33.364Z,5.10
2023-12-11T01:51:00.484Z,6.20
2023-12-11T01:53:27.759Z,5.30
2023-12-11T01:55:54.993Z,5.10
2023-12-11T01:58:21.949Z,5.40
2023-12-11T02:00:49.186Z,5.00
2023-12-11T02:03:16.337Z,5.50
2023-12-11T02:05:44.267Z,8.00
2023-12-11T02:08:11.376Z,8.20
2023-12-11T02:10:38.403Z,8.10
2023-12-11T02:13:05.412Z,6.20
2023-12-11T02:15:39.010Z,7.50
2023-12-11T02:18:07.587Z,4.80
2023-12-11T02:20:35.298Z,6.20
2023-12-11T02:23:05.095Z,8.70
2023-12-11T02:25:32.584Z,6.20
2023-12-11T02:27:59.631Z,8.10
2023-12-11T02:30:27.754Z,7.20
2023-12-11T02:32:54.656Z,8.40
2023-12-11T02:35:21.667Z,10.40
2023-12-11T02:37:48.706Z,9.90
2023-12-11T02:40:15.620Z,8.50
2023-12-11T02:42:49.000Z,10.90
2023-12-11T02:45:16.403Z,8.90
2023-12-11T02:47:43.536Z,7.30
2023-12-11T02:50:11.219Z,10.40
2023-12-11T02:52:38.257Z,9.00
2023-12-11T02:55:06.361Z,9.50
2023-12-11T02:57:33.676Z,9.90
2023-12-11T03:00:00.760Z,10.60
2023-12-11T03:02:27.776Z,8.50
2023-12-11T03:04:54.780Z,7.80
2023-12-11T03:07:21.906Z,8.80
2023-12-11T03:09:49.141Z,11.10
2023-12-11T03:12:16.176Z,11.30
2023-12-11T03:14:43.113Z,8.70
2023-12-11T03:17:10.051Z,7.90
2023-12-11T03:19:37.574Z,12.60
2023-12-11T03:22:05.096Z,19.10
2023-12-11T03:24:32.170Z,16.70
2023-12-11T03:26:59.374Z,18.50
2023-12-11T03:29:26.418Z,20.00
2023-12-11T03:31:53.570Z,19.40
2023-12-11T03:34:20.681Z,16.00
2023-12-11T03:36:47.721Z,17.70
2023-12-11T03:39:15.325Z,19.70
2023-12-11T03:41:42.377Z,19.10
2023-12-11T03:44:09.522Z,16.80
2023-12-11T03:46:36.674Z,18.20
2023-12-11T03:49:03.605Z,18.00
2023-12-11T03:51:30.889Z,18.40
2023-12-11T03:53:57.912Z,17.60
2023-12-11T03:56:25.062Z,17.90
2023-12-11T03:58:52.215Z,17.60
2023-12-11T04:01:19.089Z,21.60
2023-12-11T04:03:46.279Z,20.00
2023-12-11T04:06:13.688Z,21.40
2023-12-11T04:08:41.225Z,19.40
2023-12-11T04:11:11.653Z,21.70
2023-12-11T04:13:38.693Z,22.50
2023-12-11T04:16:06.600Z,29.10
2023-12-11T04:18:33.816Z,23.00
2023-12-11T04:21:00.956Z,26.80
2023-12-11T04:23:28.208Z,24.20
2023-12-11T04:25:57.789Z,24.10
2023-12-11T04:28:24.657Z,24.40
2023-12-11T04:30:52.036Z,22.80
2023-12-11T04:33:19.229Z,23.00
2023-12-11T04:35:46.820Z,23.50
2023-12-11T04:38:13.972Z,17.60
2023-12-11T04:40:41.272Z,23.20
2023-12-11T04:43:08.346Z,23.50
2023-12-11T04:45:35.514Z,23.30
2023-12-11T04:48:02.708Z,24.00
2023-12-11T04:50:30.032Z,22.60
2023-12-11T04:52:56.965Z,24.90
2023-12-11T04:55:24.430Z,23.70
2023-12-11T04:57:51.686Z,29.30
2023-12-11T05:00:19.260Z,26.50
2023-12-11T05:02:46.261Z,28.70
2023-12-11T05:05:15.299Z,28.20
2023-12-11T05:07:42.830Z,31.10
2023-12-11T05:10:10.354Z,28.40
2023-12-11T05:12:37.591Z,30.90
2023-12-11T05:15:05.400Z,29.80
2023-12-11T05:17:32.812Z,33.10
2023-12-11T05:20:00.065Z,33.30
2023-12-11T05:22:27.509Z,28.20
2023-12-11T05:24:54.797Z,28.20
2023-12-11T05:27:21.985Z,30.30
2023-12-11T05:29:49.012Z,33.00
2023-12-11T05:32:15.998Z,30.40
2023-12-11T05:34:42.995Z,34.10
2023-12-11T05:37:10.115Z,33.70
2023-12-11T05:39:41.198Z,29.60
2023-12-11T05:42:08.687Z,33.10
2023-12-11T05:44:35.602Z,29.70
2023-12-11T05:47:02.863Z,33.20
2023-12-11T05:49:30.117Z,27.90
2023-12-11T05:51:57.271Z,28.20
2023-12-11T05:54:24.296Z,28.20
2023-12-11T05:56:51.391Z,25.90
2023-12-11T05:59:18.615Z,25.10
2023-12-11T06:01:45.612Z,24.00
2023-12-11T06:04:13.007Z,23.60
2023-12-11T06:06:40.200Z,25.20
2023-12-11T06:09:07.327Z,22.90
2023-12-11T06:11:34.344Z,19.50
2023-12-11T06:14:01.511Z,19.80
2023-12-11T06:16:28.541Z,20.50
2023-12-11T06:18:55.783Z,20.60
2023-12-11T06:21:22.943Z,19.20
2023-12-11T06:23:50.206Z,16.30
2023-12-11T06:26:33.735Z,18.70
2023-12-11T06:29:01.487Z,21.70
2023-12-11T06:31:29.059Z,19.60
2023-12-11T06:33:56.727Z,22.90
2023-12-11T06:36:24.164Z,18.90
2023-12-11T06:38:51.231Z,20.70
2023-12-11T06:41:18.771Z,18.90
2023-12-11T06:43:53.090Z,20.20
2023-12-11T06:46:20.730Z,16.70
2023-12-11T06:48:48.226Z,14.10
2023-12-11T06:51:18.542Z,15.80
2023-12-11T06:53:45.505Z,13.90
2023-12-11T06:56:21.493Z,14.20
2023-12-11T06:58:48.607Z,13.90
2023-12-11T07:01:16.595Z,15.80
2023-12-11T07:03:46.058Z,14.80
2023-12-11T07:06:13.292Z,15.20
2023-12-11T07:08:40.584Z,14.40
2023-12-11T07:11:07.702Z,14.90
2023-12-11T07:13:34.834Z,16.30
2023-12-11T07:16:02.023Z,13.10
2023-12-11T07:18:29.412Z,14.20
2023-12-11T07:20:57.193Z,18.10
2023-12-11T07:23:24.196Z,14.20
2023-12-11T07:25:51.121Z,14.60
2023-12-11T07:28:18.308Z,15.00
2023-12-11T07:30:46.303Z,13.90
2023-12-11T07:33:13.434Z,16.50
2023-12-11T07:35:40.516Z,15.90
2023-12-11T07:38:07.475Z,18.60
2023-12-11T07:40:34.629Z,24.00
2023-12-11T07:43:02.046Z,21.50
2023-12-11T07:45:29.327Z,20.40
2023-12-11T07:47:56.471Z,19.60
2023-12-11T07:50:23.525Z,20.50
2023-12-11T07:52:50.582Z,22.30
2023-12-11T07:55:17.674Z,20.00
2023-12-11T07:57:44.737Z,20.50
2023-12-11T08:00:12.743Z,22.00
2023-12-11T08:02:40.147Z,22.10
2023-12-11T08:05:07.605Z,21.80
2023-12-11T08:07:35.112Z,24.00
2023-12-11T08:10:03.169Z,21.40
2023-12-11T08:12:31.725Z,18.20
2023-12-11T08:14:58.715Z,15.80
2023-12-11T08:17:25.947Z,13.50
2023-12-11T08:19:54.313Z,10.60
2023-12-11T08:22:21.508Z,10.50
2023-12-11T08:24:48.792Z,10.00
2023-12-11T08:27:16.925Z,9.30
2023-12-11T08:29:43.869Z,10.10
2023-12-11T08:32:11.207Z,9.90
2023-12-11T08:34:38.503Z,9.00
2023-12-11T08:37:05.793Z,12.40
2023-12-11T08:39:33.066Z,9.50
2023-12-11T08:42:00.255Z,8.00
2023-12-11T08:44:27.373Z,8.80
2023-12-11T08:46:54.319Z,8.60
2023-12-11T08:49:21.494Z,11.00
2023-12-11T08:51:48.713Z,10.00
2023-12-11T08:54:16.148Z,12.60
2023-12-11T08:56:43.417Z,11.00
2023-12-11T08:59:10.459Z,11.80
2023-12-11T09:01:38.705Z,11.20
2023-12-11T09:04:05.843Z,13.90
2023-12-11T09:06:32.934Z,13.20
2023-12-11T09:09:00.299Z,13.60
2023-12-11T09:11:27.760Z,13.50
2023-12-11T09:13:55.012Z,14.40
2023-12-11T09:16:22.303Z,16.10
2023-12-11T09:18:49.485Z,14.50
2023-12-11T09:21:16.859Z,15.40
2023-12-11T09:23:43.907Z,14.80
2023-12-11T09:26:10.958Z,15.60
2023-12-11T09:28:48.268Z,15.90
2023-12-11T09:31:20.810Z,14.50
2023-12-11T09:33:48.396Z,16.90
2023-12-11T09:36:15.847Z,15.30
2023-12-11T09:38:43.690Z,13.10
2023-12-11T09:41:10.557Z,14.10
2023-12-11T09:43:37.693Z,11.40
2023-12-11T09:46:07.184Z,12.10
2023-12-11T09:48:34.528Z,13.00
2023-12-11T09:51:01.696Z,12.30
2023-12-11T09:53:30.987Z,12.60
2023-12-11T09:55:58.550Z,12.60
2023-12-11T09:58:25.808Z,13.40
2023-12-11T10:00:53.768Z,12.60
2023-12-11T10:03:21.257Z,13.90
2023-12-11T10:05:48.590Z,12.60
2023-12-11T10:08:18.611Z,14.30
2023-12-11T10:10:46.053Z,14.30
2023-12-11T10:13:25.383Z,15.40
2023-12-11T10:15:52.867Z,13.30
2023-12-11T10:18:20.077Z,18.30
2023-12-11T10:20:50.862Z,16.60
2023-12-11T10:23:19.556Z,20.80
2023-12-11T10:26:04.802Z,17.80
2023-12-11T10:28:32.668Z,17.10
2023-12-11T10:31:05.419Z,19.20
2023-12-11T10:33:33.157Z,21.90
2023-12-11T10:36:12.810Z,16.40
2023-12-11T10:38:40.213Z,17.70
2023-12-11T10:41:07.548Z,14.20
2023-12-11T10:43:56.706Z,13.60
2023-12-11T10:46:32.013Z,14.80
2023-12-11T10:49:00.297Z,14.80
2023-12-11T10:51:27.811Z,13.20
2023-12-11T10:53:55.270Z,13.00
2023-12-11T10:56:22.889Z,15.00
2023-12-11T10:58:50.066Z,14.00
2023-12-11T11:01:17.078Z,11.90
2023-12-11T11:03:44.369Z,11.30
2023-12-11T11:06:11.623Z,13.90
2023-12-11T11:08:52.505Z,13.60
2023-12-11T11:11:25.215Z,14.40
2023-12-11T11:13:52.400Z,12.80
2023-12-11T11:16:19.497Z,11.30
2023-12-11T11:19:06.085Z,12.00
2023-12-11T11:21:33.435Z,10.90
2023-12-11T11:24:00.858Z,12.70
2023-12-11T11:26:35.717Z,12.30
2023-12-11T11:29:06.435Z,11.90
2023-12-11T11:31:53.172Z,12.20
2023-12-11T11:34:46.068Z,13.80
2023-12-11T11:37:21.914Z,15.50
2023-12-11T11:40:03.382Z,13.10
2023-12-11T11:42:34.880Z,15.20
2023-12-11T11:45:04.280Z,17.40
2023-12-11T11:47:37.868Z,12.90
2023-12-11T11:50:10.445Z,16.50
2023-12-11T11:52:39.660Z,12.70
2023-12-11T11:55:15.061Z,12.10
2023-12-11T11:57:43.683Z,13.10
2023-12-11T12:00:10.936Z,13.00
2023-12-11T12:02:38.087Z,14.80
2023-12-11T12:05:11.336Z,16.70
2023-12-11T12:07:43.442Z,16.80
2023-12-11T12:10:12.535Z,18.10
2023-12-11T12:12:39.439Z,17.50
2023-12-11T12:15:11.040Z,17.20
2023-12-11T12:20:13.771Z,18.10
2023-12-11T12:22:57.894Z,17.50
2023-12-11T12:25:27.013Z,20.10
2023-12-11T12:27:55.286Z,21.10
2023-12-11T12:30:22.409Z,22.00
2023-12-11T12:32:51.006Z,20.20
2023-12-11T12:35:19.041Z,19.70
2023-12-11T12:37:47.193Z,17.20
2023-12-11T12:40:14.552Z,14.70
2023-12-11T12:42:43.756Z,14.10
2023-12-11T12:45:12.926Z,16.00
2023-12-11T12:47:47.957Z,12.60
2023-12-11T12:50:25.411Z,12.50
2023-12-11T12:52:54.394Z,11.80
2023-12-11T12:55:30.337Z,12.90
2023-12-11T12:58:00.471Z,11.60
2023-12-11T13:00:27.678Z,13.40
2023-12-11T13:02:55.487Z,11.40
2023-12-11T13:05:23.950Z,10.70
2023-12-11T13:08:02.683Z,11.20
2023-12-11T13:10:30.204Z,11.30
2023-12-11T13:12:57.535Z,11.70
2023-12-11T13:15:24.598Z,11.10
2023-12-11T13:17:53.109Z,12.00
2023-12-11T13:20:20.828Z,13.40
2023-12-11T13:22:49.783Z,13.90
2023-12-11T13:25:17.167Z,14.60
2023-12-11T13:27:48.113Z,14.00
2023-12-11T13:30:16.778Z,15.00
2023-12-11T13:32:44.339Z,16.80
2023-12-11T13:35:11.887Z,14.70
2023-12-11T13:37:39.227Z,14.10
2023-12-11T13:40:07.450Z,13.80
2023-12-11T13:42:35.200Z,15.20
2023-12-11T13:45:02.612Z,16.40
2023-12-11T13:47:30.405Z,16.10
2023-12-11T13:49:57.915Z,14.80
2023-12-11T13:52:25.213Z,15.00
2023-12-11T13:54:52.697Z,15.90
2023-12-11T13:57:20.717Z,17.10
2023-12-11T13:59:48.794Z,14.90
2023-12-11T14:02:17.233Z,17.20
2023-12-11T14:05:06.442Z,20.90
2023-12-11T14:07:34.045Z,20.50
2023-12-11T14:10:01.813Z,22.70
2023-12-11T14:12:29.226Z,25.50
2023-12-11T14:14:56.258Z,22.00
2023-12-11T14:17:23.690Z,22.10
2023-12-11T14:19:50.993Z,21.50
2023-12-11T14:22:19.018Z,21.30
2023-12-11T14:24:46.758Z,27.10
2023-12-11T14:27:14.331Z,23.10
2023-12-11T14:29:42.125Z,20.30
2023-12-11T14:32:09.141Z,23.00
2023-12-11T14:34:42.876Z,23.70
2023-12-11T14:37:11.425Z,22.30
2023-12-11T14:39:39.849Z,24.70
2023-12-11T14:42:07.217Z,34.20
2023-12-11T14:44:35.363Z,27.90
2023-12-11T14:47:02.893Z,26.10
2023-12-11T14:49:29.994Z,31.40
2023-12-11T14:51:57.849Z,29.70
2023-12-11T14:54:25.507Z,24.40
2023-12-11T14:56:52.308Z,25.00
2023-12-11T14:59:19.285Z,30.10
2023-12-11T15:01:48.184Z,25.50
2023-12-11T15:04:15.425Z,27.70
2023-12-11T15:06:42.626Z,23.30
2023-12-11T15:09:09.764Z,28.30
2023-12-11T15:11:38.515Z,27.00
2023-12-11T15:14:06.341Z,22.20
2023-12-11T15:16:38.040Z,24.40
2023-12-11T15:19:05.556Z,28.10
2023-12-11T15:21:33.214Z,28.50
2023-12-11T15:24:00.447Z,30.30
2023-12-11T15:26:27.518Z,28.10
2023-12-11T15:28:54.707Z,21.80
2023-12-11T15:31:23.120Z,27.00
2023-12-11T15:33:51.562Z,29.00
2023-12-11T15:36:21.845Z,34.20
2023-12-11T15:38:49.072Z,34.20
2023-12-11T15:41:17.279Z,27.40
2023-12-11T15:43:47.944Z,23.70
2023-12-11T15:46:18.169Z,24.50
2023-12-11T15:48:46.751Z,23.00
2023-12-11T15:51:19.730Z,23.40
2023-12-11T15:53:47.305Z,20.10
2023-12-11T15:56:16.368Z,23.40
2023-12-11T15:58:43.945Z,21.10
2023-12-11T16:01:11.696Z,26.90
2023-12-11T16:03:39.199Z,29.80
2023-12-11T16:06:09.531Z,24.40
2023-12-11T16:08:37.047Z,22.90
2023-12-11T16:11:04.402Z,25.10
2023-12-11T16:13:31.860Z,26.30
2023-12-11T16:15:59.623Z,22.40
2023-12-11T16:18:27.165Z,23.50
2023-12-11T16:20:54.133Z,22.00
2023-12-11T16:23:21.078Z,22.20
2023-12-11T16:25:56.052Z,21.90
2023-12-11T16:30:57.319Z,22.60
2023-12-11T16:33:24.683Z,24.90
2023-12-11T16:35:53.652Z,23.00
2023-12-11T16:38:20.766Z,21.90
2023-12-11T16:40:48.536Z,24.60
2023-12-11T16:43:15.503Z,26.40
2023-12-11T16:45:45.539Z,28.60
2023-12-11T16:48:13.151Z,28.40
2023-12-11T16:50:43.630Z,26.10
2023-12-11T16:53:11.079Z,30.30
2023-12-11T16:55:38.143Z,28.90
2023-12-11T16:58:05.867Z,27.70
2023-12-11T17:00:32.997Z,28.50
2023-12-11T17:03:00.049Z,30.80
2023-12-11T17:05:27.461Z,27.20
2023-12-11T17:07:54.647Z,32.40
2023-12-11T17:10:21.885Z,30.80
2023-12-11T17:12:49.057Z,30.20
2023-12-11T17:15:16.611Z,32.30
2023-12-11T17:17:43.882Z,34.10
2023-12-11T17:20:11.820Z,33.10
2023-12-11T17:22:39.175Z,28.70
2023-12-11T17:25:07.379Z,31.20
2023-12-11T17:27:34.761Z,30.80
2023-12-11T17:30:03.923Z,32.30
2023-12-11T17:32:32.858Z,33.70
2023-12-11T17:35:02.489Z,32.60
2023-12-11T17:37:29.920Z,32.80
2023-12-11T17:39:57.277Z,30.20
2023-12-11T17:42:27.606Z,32.80
2023-12-11T17:44:54.801Z,29.50
2023-12-11T17:47:22.032Z,30.30
2023-12-11T17:49:49.260Z,35.10
2023-12-11T17:52:16.735Z,30.10
2023-12-11T17:54:45.538Z,31.40
2023-12-11T17:57:12.486Z,33.60
2023-12-11T17:59:41.783Z,31.50
2023-12-11T18:02:10.462Z,33.10
2023-12-11T18:04:39.210Z,31.20
2023-12-11T18:07:07.325Z,33.40
2023-12-11T18:09:37.177Z,33.10
2023-12-11T18:12:05.430Z,32.80
2023-12-11T18:14:32.756Z,31.80
2023-12-11T18:16:59.696Z,31.40
2023-12-11T18:19:27.142Z,32.00
2023-12-11T18:21:55.332Z,31.40
2023-12-11T18:24:23.940Z,34.20
2023-12-11T18:26:50.959Z,35.80
2023-12-11T18:29:18.583Z,35.30
2023-12-11T18:31:45.874Z,33.10
2023-12-11T18:34:14.128Z,32.20
2023-12-11T18:36:41.914Z,30.80
2023-12-11T18:39:15.810Z,33.70
2023-12-11T18:41:43.066Z,30.40
2023-12-11T18:44:10.855Z,33.20
2023-12-11T18:46:39.214Z,32.40
2023-12-11T18:49:06.348Z,36.40
2023-12-11T18:51:33.627Z,35.70
2023-12-11T18:54:00.996Z,33.90
2023-12-11T18:56:28.448Z,33.70
2023-12-11T18:58:55.404Z,31.40
2023-12-11T19:01:24.122Z,31.10
2023-12-11T19:03:51.484Z,32.30
2023-12-11T19:06:18.967Z,29.40
2023-12-11T19:08:46.998Z,30.00
2023-12-11T19:11:14.593Z,29.70
2023-12-11T19:13:41.668Z,29.20
2023-12-11T19:16:09.263Z,34.10
2023-12-11T19:18:36.781Z,31.70
2023-12-11T19:21:04.937Z,31.50
2023-12-11T19:23:32.194Z,29.90
2023-12-11T19:25:59.350Z,31.20
2023-12-11T19:28:27.284Z,31.40
2023-12-11T19:30:54.758Z,29.80
2023-12-11T19:33:22.536Z,30.80
2023-12-11T19:35:50.607Z,31.90
2023-12-11T19:38:17.663Z,31.60
2023-12-11T19:40:44.914Z,28.10
2023-12-11T19:43:15.670Z,31.10
2023-12-11T19:45:43.199Z,28.90
2023-12-11T19:48:10.311Z,31.70
2023-12-11T19:50:37.617Z,28.10
2023-12-11T19:53:04.745Z,30.00
2023-12-11T19:55:31.881Z,30.00
2023-12-11T19:57:59.718Z,31.90
2023-12-11T20:00:26.903Z,34.00
2023-12-11T20:02:53.852Z,30.20
2023-12-11T20:05:21.340Z,28.20
2023-12-11T20:07:48.753Z,27.80
2023-12-11T20:10:16.385Z,28.90
2023-12-11T20:12:43.632Z,25.40
2023-12-11T20:15:13.963Z,27.60
2023-12-11T20:17:41.178Z,30.00
2023-12-11T20:20:08.530Z,30.50
2023-12-11T20:22:35.960Z,28.40
2023-12-11T20:25:03.165Z,26.40
2023-12-11T20:27:30.557Z,25.00
2023-12-11T20:29:57.721Z,24.50
2023-12-11T20:32:25.965Z,24.00
2023-12-11T20:34:53.777Z,24.70
2023-12-11T20:37:20.850Z,24.60
2023-12-11T20:39:47.810Z,25.40
2023-12-11T20:42:17.959Z,22.10
2023-12-11T20:44:44.928Z,23.70
2023-12-11T20:47:11.994Z,22.90
2023-12-11T20:49:38.960Z,26.50
2023-12-11T20:52:06.634Z,24.90
2023-12-11T20:54:33.704Z,24.70
2023-12-11T20:57:00.685Z,24.60
2023-12-11T20:59:28.113Z,21.20
2023-12-11T21:01:55.211Z,27.70
2023-12-11T21:04:22.447Z,23.20
2023-12-11T21:06:49.645Z,22.80
2023-12-11T21:09:17.937Z,19.20
2023-12-11T21:11:45.393Z,21.70
2023-12-11T21:14:12.346Z,21.40
2023-12-11T21:16:39.352Z,18.80
2023-12-11T21:19:06.599Z,21.10
2023-12-11T21:21:34.219Z,21.40
2023-12-11T21:24:01.488Z,19.50
2023-12-11T21:26:31.750Z,19.90
2023-12-11T21:28:59.937Z,20.30
2023-12-11T21:31:29.470Z,21.30
2023-12-11T21:33:56.826Z,19.30
2023-12-11T21:36:30.172Z,20.80
2023-12-11T21:38:57.970Z,19.50
2023-12-11T21:41:24.903Z,21.70
2023-12-11T21:43:52.499Z,18.30
2023-12-11T21:46:19.670Z,19.10
2023-12-11T21:48:48.436Z,20.30
2023-12-11T21:51:16.331Z,17.10
2023-12-11T21:53:43.654Z,20.90
2023-12-11T21:56:10.765Z,18.70
2023-12-11T21:58:37.913Z,18.60
2023-12-11T22:01:05.343Z,22.40
2023-12-11T22:03:32.672Z,19.00
2023-12-11T22:05:59.891Z,21.50
2023-12-11T22:08:27.443Z,20.00
2023-12-11T22:10:57.369Z,20.70
2023-12-11T22:13:25.045Z,21.30
2023-12-11T22:15:51.968Z,24.40
2023-12-11T22:18:19.157Z,23.50
2023-12-11T22:20:47.490Z,21.90
2023-12-11T22:23:14.549Z,21.70
2023-12-11T22:25:41.882Z,19.60
2023-12-11T22:28:08.848Z,21.20
2023-12-11T22:30:35.988Z,22.70
2023-12-11T22:33:03.048Z,24.30
2023-12-11T22:35:30.078Z,23.00
2023-12-11T22:37:57.354Z,24.30
2023-12-11T22:40:24.404Z,23.60
2023-12-11T22:42:51.516Z,21.60
2023-12-11T22:45:20.412Z,22.80
2023-12-11T22:47:47.490Z,22.90
2023-12-11T22:50:14.917Z,22.60
2023-12-11T22:52:41.859Z,22.40
2023-12-11T22:55:09.524Z,23.40
2023-12-11T22:57:36.463Z,24.70
2023-12-11T23:00:04.342Z,25.80
2023-12-11T23:02:32.088Z,24.20
2023-12-11T23:04:59.118Z,24.80
2023-12-11T23:07:26.278Z,25.10
2023-12-11T23:09:53.377Z,26.40
2023-12-11T23:12:20.288Z,22.90
2023-12-11T23:14:47.435Z,23.20
2023-12-11T23:17:14.240Z,25.20
2023-12-11T23:19:41.169Z,27.20
2023-12-11T23:22:08.398Z,24.90
2023-12-11T23:24:36.229Z,24.90
2023-12-11T23:27:03.693Z,25.20
2023-12-11T23:29:30.687Z,24.30
2023-12-11T23:31:57.530Z,25.50
2023-12-11T23:34:24.738Z,25.20
2023-12-11T23:36:51.803Z,26.10
2023-12-11T23:39:19.842Z,25.60
2023-12-11T23:41:46.721Z,26.40
2023-12-11T23:44:13.635Z,22.40
2023-12-11T23:46:41.079Z,24.40
2023-12-11T23:49:08.227Z,23.40
2023-12-11T23:51:35.793Z,23.50
2023-12-11T23:54:03.149Z,24.50
2023-12-11T23:56:30.209Z,23.90
2023-12-11T23:58:57.344Z,23.50
